sensor_id;sensor_type;location;lat;lon;timestamp;P1;durP1;ratioP1;P2;durP2;ratioP2
17424;SDS011;8830;50.978;5.058;2022-12-10T00:01:02;50.87;;;25.23;;
17424;SDS011;8830;50.978;5.058;2022-12-10T00:03:29;47.20;;;25.13;;
17424;SDS011;8830;50.978;5.058;2022-12-10T00:06:00;50.67;;;24.97;;
17424;SDS011;8830;50.978;5.058;2022-12-10T00:08:27;45.97;;;24.57;;
17424;SDS011;8830;50.978;5.058;2022-12-10T00:10:54;42.83;;;24.53;;
17424;SDS011;8830;50.978;5.058;2022-12-10T00:13:23;44.87;;;23.93;;
17424;SDS011;8830;50.978;5.058;2022-12-10T00:15:50;45.83;;;24.77;;
17424;SDS011;8830;50.978;5.058;2022-12-10T00:18:16;49.37;;;26.03;;
17424;SDS011;8830;50.978;5.058;2022-12-10T00:20:43;41.53;;;23.43;;
17424;SDS011;8830;50.978;5.058;2022-12-10T00:23:13;42.90;;;23.43;;
17424;SDS011;8830;50.978;5.058;2022-12-10T00:25:40;43.10;;;22.67;;
17424;SDS011;8830;50.978;5.058;2022-12-10T00:28:06;42.50;;;22.87;;
17424;SDS011;8830;50.978;5.058;2022-12-10T00:30:33;38.27;;;22.33;;
17424;SDS011;8830;50.978;5.058;2022-12-10T00:33:00;38.10;;;21.20;;
17424;SDS011;8830;50.978;5.058;2022-12-10T00:35:27;44.47;;;23.07;;
17424;SDS011;8830;50.978;5.058;2022-12-10T00:37:54;35.70;;;21.43;;
17424;SDS011;8830;50.978;5.058;2022-12-10T00:40:22;36.90;;;21.73;;
17424;SDS011;8830;50.978;5.058;2022-12-10T00:42:49;40.03;;;22.10;;
17424;SDS011;8830;50.978;5.058;2022-12-10T00:45:16;33.73;;;20.87;;
17424;SDS011;8830;50.978;5.058;2022-12-10T00:47:44;40.77;;;23.03;;
17424;SDS011;8830;50.978;5.058;2022-12-10T00:50:10;42.53;;;22.80;;
17424;SDS011;8830;50.978;5.058;2022-12-10T00:52:37;41.33;;;22.30;;
17424;SDS011;8830;50.978;5.058;2022-12-10T00:55:04;39.97;;;22.23;;
17424;SDS011;8830;50.978;5.058;2022-12-10T00:57:34;39.27;;;22.47;;
17424;SDS011;8830;50.978;5.058;2022-12-10T01:00:01;41.00;;;22.33;;
17424;SDS011;8830;50.978;5.058;2022-12-10T01:02:29;39.00;;;21.63;;
17424;SDS011;8830;50.978;5.058;2022-12-10T01:04:56;40.77;;;23.13;;
17424;SDS011;8830;50.978;5.058;2022-12-10T01:07:23;44.10;;;22.87;;
17424;SDS011;8830;50.978;5.058;2022-12-10T01:09:50;37.10;;;21.57;;
17424;SDS011;8830;50.978;5.058;2022-12-10T01:12:17;44.77;;;22.80;;
17424;SDS011;8830;50.978;5.058;2022-12-10T01:14:45;46.17;;;22.87;;
17424;SDS011;8830;50.978;5.058;2022-12-10T01:17:12;44.43;;;23.57;;
17424;SDS011;8830;50.978;5.058;2022-12-10T01:19:39;44.87;;;23.03;;
17424;SDS011;8830;50.978;5.058;2022-12-10T01:22:07;42.80;;;22.13;;
17424;SDS011;8830;50.978;5.058;2022-12-10T01:24:33;42.83;;;22.70;;
17424;SDS011;8830;50.978;5.058;2022-12-10T01:27:00;42.50;;;22.67;;
17424;SDS011;8830;50.978;5.058;2022-12-10T01:29:27;42.90;;;23.07;;
17424;SDS011;8830;50.978;5.058;2022-12-10T01:31:56;45.17;;;21.97;;
17424;SDS011;8830;50.978;5.058;2022-12-10T01:34:23;46.17;;;23.03;;
17424;SDS011;8830;50.978;5.058;2022-12-10T01:36:52;39.80;;;23.00;;
17424;SDS011;8830;50.978;5.058;2022-12-10T01:39:21;44.70;;;22.83;;
17424;SDS011;8830;50.978;5.058;2022-12-10T01:41:49;43.33;;;22.93;;
17424;SDS011;8830;50.978;5.058;2022-12-10T01:47:25;48.77;;;23.57;;
17424;SDS011;8830;50.978;5.058;2022-12-10T01:49:52;52.27;;;23.20;;
17424;SDS011;8830;50.978;5.058;2022-12-10T01:52:21;45.57;;;22.37;;
17424;SDS011;8830;50.978;5.058;2022-12-10T01:54:47;50.17;;;24.00;;
17424;SDS011;8830;50.978;5.058;2022-12-10T01:57:16;48.97;;;23.53;;
17424;SDS011;8830;50.978;5.058;2022-12-10T01:59:45;49.10;;;24.30;;
17424;SDS011;8830;50.978;5.058;2022-12-10T02:02:16;46.60;;;24.57;;
17424;SDS011;8830;50.978;5.058;2022-12-10T02:04:55;47.80;;;23.77;;
17424;SDS011;8830;50.978;5.058;2022-12-10T02:07:35;55.93;;;26.53;;
17424;SDS011;8830;50.978;5.058;2022-12-10T02:10:12;55.20;;;24.13;;
17424;SDS011;8830;50.978;5.058;2022-12-10T02:12:49;52.93;;;24.97;;
17424;SDS011;8830;50.978;5.058;2022-12-10T02:15:21;52.03;;;23.30;;
17424;SDS011;8830;50.978;5.058;2022-12-10T02:17:51;50.70;;;24.93;;
17424;SDS011;8830;50.978;5.058;2022-12-10T02:20:24;52.67;;;24.47;;
17424;SDS011;8830;50.978;5.058;2022-12-10T02:22:58;51.13;;;22.90;;
17424;SDS011;8830;50.978;5.058;2022-12-10T02:25:43;52.07;;;22.03;;
17424;SDS011;8830;50.978;5.058;2022-12-10T02:28:17;51.70;;;22.70;;
17424;SDS011;8830;50.978;5.058;2022-12-10T02:30:49;53.70;;;22.67;;
17424;SDS011;8830;50.978;5.058;2022-12-10T02:33:17;45.80;;;22.17;;
17424;SDS011;8830;50.978;5.058;2022-12-10T02:35:46;42.67;;;20.50;;
17424;SDS011;8830;50.978;5.058;2022-12-10T02:38:16;47.93;;;22.30;;
17424;SDS011;8830;50.978;5.058;2022-12-10T02:40:50;44.77;;;21.40;;
17424;SDS011;8830;50.978;5.058;2022-12-10T02:43:21;51.73;;;21.27;;
17424;SDS011;8830;50.978;5.058;2022-12-10T02:45:52;46.73;;;22.67;;
17424;SDS011;8830;50.978;5.058;2022-12-10T02:48:21;43.43;;;20.37;;
17424;SDS011;8830;50.978;5.058;2022-12-10T02:50:49;47.17;;;21.03;;
17424;SDS011;8830;50.978;5.058;2022-12-10T02:53:16;44.43;;;21.83;;
17424;SDS011;8830;50.978;5.058;2022-12-10T02:55:51;45.60;;;21.10;;
17424;SDS011;8830;50.978;5.058;2022-12-10T02:58:27;49.27;;;21.63;;
17424;SDS011;8830;50.978;5.058;2022-12-10T03:01:02;48.20;;;20.27;;
17424;SDS011;8830;50.978;5.058;2022-12-10T03:03:38;45.43;;;21.23;;
17424;SDS011;8830;50.978;5.058;2022-12-10T03:06:13;46.80;;;20.43;;
17424;SDS011;8830;50.978;5.058;2022-12-10T03:08:47;47.13;;;21.83;;
17424;SDS011;8830;50.978;5.058;2022-12-10T03:11:17;45.63;;;21.47;;
17424;SDS011;8830;50.978;5.058;2022-12-10T03:13:48;50.00;;;22.13;;
17424;SDS011;8830;50.978;5.058;2022-12-10T03:16:22;47.57;;;21.37;;
17424;SDS011;8830;50.978;5.058;2022-12-10T03:18:51;51.40;;;22.27;;
17424;SDS011;8830;50.978;5.058;2022-12-10T03:21:22;45.87;;;20.97;;
17424;SDS011;8830;50.978;5.058;2022-12-10T03:23:51;49.43;;;22.70;;
17424;SDS011;8830;50.978;5.058;2022-12-10T03:26:18;51.60;;;21.60;;
17424;SDS011;8830;50.978;5.058;2022-12-10T03:28:48;53.40;;;23.53;;
17424;SDS011;8830;50.978;5.058;2022-12-10T03:31:17;52.93;;;23.30;;
17424;SDS011;8830;50.978;5.058;2022-12-10T03:33:47;48.13;;;21.17;;
17424;SDS011;8830;50.978;5.058;2022-12-10T03:36:15;55.03;;;22.03;;
17424;SDS011;8830;50.978;5.058;2022-12-10T03:38:44;54.30;;;23.27;;
17424;SDS011;8830;50.978;5.058;2022-12-10T03:41:11;51.80;;;22.23;;
17424;SDS011;8830;50.978;5.058;2022-12-10T03:43:49;46.87;;;21.77;;
17424;SDS011;8830;50.978;5.058;2022-12-10T03:46:20;49.23;;;21.70;;
17424;SDS011;8830;50.978;5.058;2022-12-10T03:48:49;50.00;;;22.90;;
17424;SDS011;8830;50.978;5.058;2022-12-10T03:51:15;53.13;;;23.10;;
17424;SDS011;8830;50.978;5.058;2022-12-10T03:53:42;47.97;;;21.53;;
17424;SDS011;8830;50.978;5.058;2022-12-10T03:56:09;56.30;;;24.23;;
17424;SDS011;8830;50.978;5.058;2022-12-10T03:58:37;45.80;;;22.83;;
17424;SDS011;8830;50.978;5.058;2022-12-10T04:01:04;52.00;;;22.37;;
17424;SDS011;8830;50.978;5.058;2022-12-10T04:03:33;57.43;;;23.13;;
17424;SDS011;8830;50.978;5.058;2022-12-10T04:06:03;54.90;;;22.93;;
17424;SDS011;8830;50.978;5.058;2022-12-10T04:08:31;51.83;;;22.20;;
17424;SDS011;8830;50.978;5.058;2022-12-10T04:11:01;44.93;;;22.03;;
17424;SDS011;8830;50.978;5.058;2022-12-10T04:13:31;52.90;;;21.97;;
17424;SDS011;8830;50.978;5.058;2022-12-10T04:16:16;43.03;;;20.67;;
17424;SDS011;8830;50.978;5.058;2022-12-10T04:18:55;48.47;;;22.53;;
17424;SDS011;8830;50.978;5.058;2022-12-10T04:21:25;44.27;;;20.60;;
17424;SDS011;8830;50.978;5.058;2022-12-10T04:24:10;42.80;;;19.60;;
17424;SDS011;8830;50.978;5.058;2022-12-10T04:27:11;44.40;;;19.80;;
17424;SDS011;8830;50.978;5.058;2022-12-10T04:29:40;42.27;;;20.57;;
17424;SDS011;8830;50.978;5.058;2022-12-10T04:32:08;51.80;;;21.80;;
17424;SDS011;8830;50.978;5.058;2022-12-10T04:34:34;47.20;;;21.03;;
17424;SDS011;8830;50.978;5.058;2022-12-10T04:37:03;52.37;;;21.80;;
17424;SDS011;8830;50.978;5.058;2022-12-10T04:39:30;56.50;;;23.13;;
17424;SDS011;8830;50.978;5.058;2022-12-10T04:41:58;55.07;;;21.87;;
17424;SDS011;8830;50.978;5.058;2022-12-10T04:44:27;53.77;;;22.83;;
17424;SDS011;8830;50.978;5.058;2022-12-10T04:46:54;48.33;;;20.73;;
17424;SDS011;8830;50.978;5.058;2022-12-10T04:49:22;51.20;;;22.00;;
17424;SDS011;8830;50.978;5.058;2022-12-10T04:51:50;43.43;;;21.20;;
17424;SDS011;8830;50.978;5.058;2022-12-10T04:54:19;60.47;;;24.10;;
17424;SDS011;8830;50.978;5.058;2022-12-10T04:56:46;58.80;;;22.43;;
17424;SDS011;8830;50.978;5.058;2022-12-10T04:59:14;47.90;;;21.67;;
17424;SDS011;8830;50.978;5.058;2022-12-10T05:01:41;54.80;;;22.30;;
17424;SDS011;8830;50.978;5.058;2022-12-10T05:04:09;45.67;;;20.83;;
17424;SDS011;8830;50.978;5.058;2022-12-10T05:06:38;49.47;;;21.43;;
17424;SDS011;8830;50.978;5.058;2022-12-10T05:09:06;53.40;;;22.33;;
17424;SDS011;8830;50.978;5.058;2022-12-10T05:11:36;49.87;;;22.57;;
17424;SDS011;8830;50.978;5.058;2022-12-10T05:14:04;52.53;;;22.67;;
17424;SDS011;8830;50.978;5.058;2022-12-10T05:16:33;50.93;;;21.97;;
17424;SDS011;8830;50.978;5.058;2022-12-10T05:19:00;59.17;;;22.93;;
17424;SDS011;8830;50.978;5.058;2022-12-10T05:21:28;53.20;;;24.10;;
17424;SDS011;8830;50.978;5.058;2022-12-10T05:24:10;57.57;;;23.37;;
17424;SDS011;8830;50.978;5.058;2022-12-10T05:26:39;46.23;;;21.23;;
17424;SDS011;8830;50.978;5.058;2022-12-10T05:29:07;47.23;;;20.67;;
17424;SDS011;8830;50.978;5.058;2022-12-10T05:31:35;48.90;;;20.90;;
17424;SDS011;8830;50.978;5.058;2022-12-10T05:34:02;46.27;;;21.57;;
17424;SDS011;8830;50.978;5.058;2022-12-10T05:36:30;47.23;;;20.27;;
17424;SDS011;8830;50.978;5.058;2022-12-10T05:38:58;53.10;;;22.27;;
17424;SDS011;8830;50.978;5.058;2022-12-10T05:41:26;44.10;;;20.07;;
17424;SDS011;8830;50.978;5.058;2022-12-10T05:43:56;46.20;;;20.37;;
17424;SDS011;8830;50.978;5.058;2022-12-10T05:46:25;43.27;;;20.10;;
17424;SDS011;8830;50.978;5.058;2022-12-10T05:48:53;48.00;;;19.20;;
17424;SDS011;8830;50.978;5.058;2022-12-10T05:51:20;37.40;;;18.47;;
17424;SDS011;8830;50.978;5.058;2022-12-10T05:53:51;39.07;;;19.53;;
17424;SDS011;8830;50.978;5.058;2022-12-10T05:56:19;41.37;;;19.63;;
17424;SDS011;8830;50.978;5.058;2022-12-10T05:58:49;44.63;;;19.60;;
17424;SDS011;8830;50.978;5.058;2022-12-10T06:01:20;46.77;;;20.63;;
17424;SDS011;8830;50.978;5.058;2022-12-10T06:03:49;42.37;;;20.23;;
17424;SDS011;8830;50.978;5.058;2022-12-10T06:06:19;48.07;;;21.93;;
17424;SDS011;8830;50.978;5.058;2022-12-10T06:08:57;46.37;;;20.97;;
17424;SDS011;8830;50.978;5.058;2022-12-10T06:11:24;49.73;;;21.77;;
17424;SDS011;8830;50.978;5.058;2022-12-10T06:13:52;52.43;;;21.70;;
17424;SDS011;8830;50.978;5.058;2022-12-10T06:16:21;47.67;;;21.30;;
17424;SDS011;8830;50.978;5.058;2022-12-10T06:18:48;48.40;;;20.93;;
17424;SDS011;8830;50.978;5.058;2022-12-10T06:21:15;52.00;;;21.57;;
17424;SDS011;8830;50.978;5.058;2022-12-10T06:23:43;48.57;;;22.47;;
17424;SDS011;8830;50.978;5.058;2022-12-10T06:26:12;51.00;;;22.30;;
17424;SDS011;8830;50.978;5.058;2022-12-10T06:28:40;44.13;;;20.80;;
17424;SDS011;8830;50.978;5.058;2022-12-10T06:31:07;46.27;;;20.20;;
17424;SDS011;8830;50.978;5.058;2022-12-10T06:33:35;45.57;;;19.50;;
17424;SDS011;8830;50.978;5.058;2022-12-10T06:36:03;44.63;;;20.33;;
17424;SDS011;8830;50.978;5.058;2022-12-10T06:38:31;45.57;;;20.50;;
17424;SDS011;8830;50.978;5.058;2022-12-10T06:40:57;45.27;;;19.67;;
17424;SDS011;8830;50.978;5.058;2022-12-10T06:43:27;48.10;;;20.87;;
17424;SDS011;8830;50.978;5.058;2022-12-10T06:45:54;49.07;;;21.30;;
17424;SDS011;8830;50.978;5.058;2022-12-10T06:48:21;49.53;;;20.23;;
17424;SDS011;8830;50.978;5.058;2022-12-10T06:50:50;45.97;;;21.23;;
17424;SDS011;8830;50.978;5.058;2022-12-10T06:53:16;51.67;;;21.43;;
17424;SDS011;8830;50.978;5.058;2022-12-10T06:55:44;57.30;;;23.40;;
17424;SDS011;8830;50.978;5.058;2022-12-10T06:58:11;56.17;;;22.60;;
17424;SDS011;8830;50.978;5.058;2022-12-10T07:00:38;58.10;;;24.37;;
17424;SDS011;8830;50.978;5.058;2022-12-10T07:03:05;53.07;;;23.27;;
17424;SDS011;8830;50.978;5.058;2022-12-10T07:05:32;60.27;;;24.93;;
17424;SDS011;8830;50.978;5.058;2022-12-10T07:08:00;59.07;;;23.23;;
17424;SDS011;8830;50.978;5.058;2022-12-10T07:10:27;55.20;;;23.40;;
17424;SDS011;8830;50.978;5.058;2022-12-10T07:12:54;56.00;;;22.70;;
17424;SDS011;8830;50.978;5.058;2022-12-10T07:15:20;58.47;;;24.63;;
17424;SDS011;8830;50.978;5.058;2022-12-10T07:17:50;57.53;;;23.17;;
17424;SDS011;8830;50.978;5.058;2022-12-10T07:20:17;64.83;;;24.03;;
17424;SDS011;8830;50.978;5.058;2022-12-10T07:22:44;58.93;;;24.43;;
17424;SDS011;8830;50.978;5.058;2022-12-10T07:25:12;56.30;;;24.10;;
17424;SDS011;8830;50.978;5.058;2022-12-10T07:27:39;61.00;;;24.07;;
17424;SDS011;8830;50.978;5.058;2022-12-10T07:30:06;64.40;;;25.10;;
17424;SDS011;8830;50.978;5.058;2022-12-10T07:32:35;63.97;;;24.80;;
17424;SDS011;8830;50.978;5.058;2022-12-10T07:35:02;65.30;;;24.37;;
17424;SDS011;8830;50.978;5.058;2022-12-10T07:37:30;61.37;;;25.53;;
17424;SDS011;8830;50.978;5.058;2022-12-10T07:39:59;72.03;;;25.67;;
17424;SDS011;8830;50.978;5.058;2022-12-10T07:42:28;70.83;;;26.97;;
17424;SDS011;8830;50.978;5.058;2022-12-10T07:44:55;71.67;;;26.37;;
17424;SDS011;8830;50.978;5.058;2022-12-10T07:47:22;65.93;;;26.47;;
17424;SDS011;8830;50.978;5.058;2022-12-10T07:49:50;65.70;;;25.37;;
17424;SDS011;8830;50.978;5.058;2022-12-10T07:52:18;61.97;;;25.27;;
17424;SDS011;8830;50.978;5.058;2022-12-10T07:54:45;66.63;;;26.10;;
17424;SDS011;8830;50.978;5.058;2022-12-10T07:57:11;65.23;;;25.80;;
17424;SDS011;8830;50.978;5.058;2022-12-10T07:59:41;68.67;;;25.37;;
17424;SDS011;8830;50.978;5.058;2022-12-10T08:02:09;63.77;;;25.17;;
17424;SDS011;8830;50.978;5.058;2022-12-10T08:04:36;67.33;;;24.60;;
17424;SDS011;8830;50.978;5.058;2022-12-10T08:07:04;58.80;;;25.00;;
17424;SDS011;8830;50.978;5.058;2022-12-10T08:09:38;64.37;;;25.37;;
17424;SDS011;8830;50.978;5.058;2022-12-10T08:12:05;60.47;;;25.00;;
17424;SDS011;8830;50.978;5.058;2022-12-10T08:14:32;68.13;;;25.10;;
17424;SDS011;8830;50.978;5.058;2022-12-10T08:17:00;68.87;;;26.03;;
17424;SDS011;8830;50.978;5.058;2022-12-10T08:19:29;68.30;;;24.63;;
17424;SDS011;8830;50.978;5.058;2022-12-10T08:21:56;67.70;;;25.00;;
17424;SDS011;8830;50.978;5.058;2022-12-10T08:24:23;68.73;;;25.10;;
17424;SDS011;8830;50.978;5.058;2022-12-10T08:26:50;61.37;;;23.47;;
17424;SDS011;8830;50.978;5.058;2022-12-10T08:29:19;61.03;;;23.90;;
17424;SDS011;8830;50.978;5.058;2022-12-10T08:31:48;65.03;;;25.77;;
17424;SDS011;8830;50.978;5.058;2022-12-10T08:34:17;63.60;;;24.77;;
17424;SDS011;8830;50.978;5.058;2022-12-10T08:36:45;64.60;;;25.03;;
17424;SDS011;8830;50.978;5.058;2022-12-10T08:39:13;66.57;;;26.23;;
17424;SDS011;8830;50.978;5.058;2022-12-10T08:41:41;72.67;;;25.73;;
17424;SDS011;8830;50.978;5.058;2022-12-10T08:44:10;69.97;;;26.03;;
17424;SDS011;8830;50.978;5.058;2022-12-10T08:46:37;71.17;;;26.63;;
17424;SDS011;8830;50.978;5.058;2022-12-10T08:49:05;63.20;;;24.93;;
17424;SDS011;8830;50.978;5.058;2022-12-10T08:51:34;69.47;;;24.60;;
17424;SDS011;8830;50.978;5.058;2022-12-10T08:54:02;66.90;;;24.70;;
17424;SDS011;8830;50.978;5.058;2022-12-10T08:56:29;58.97;;;22.97;;
17424;SDS011;8830;50.978;5.058;2022-12-10T08:58:56;66.90;;;24.77;;
17424;SDS011;8830;50.978;5.058;2022-12-10T09:01:24;62.33;;;23.47;;
17424;SDS011;8830;50.978;5.058;2022-12-10T09:03:51;70.07;;;24.43;;
17424;SDS011;8830;50.978;5.058;2022-12-10T09:06:19;73.93;;;26.53;;
17424;SDS011;8830;50.978;5.058;2022-12-10T09:08:51;66.17;;;24.57;;
17424;SDS011;8830;50.978;5.058;2022-12-10T09:11:21;64.43;;;25.37;;
17424;SDS011;8830;50.978;5.058;2022-12-10T09:13:51;65.93;;;24.77;;
17424;SDS011;8830;50.978;5.058;2022-12-10T09:16:18;65.30;;;24.07;;
17424;SDS011;8830;50.978;5.058;2022-12-10T09:18:45;62.33;;;24.17;;
17424;SDS011;8830;50.978;5.058;2022-12-10T09:21:13;70.13;;;26.03;;
17424;SDS011;8830;50.978;5.058;2022-12-10T09:23:43;68.87;;;24.77;;
17424;SDS011;8830;50.978;5.058;2022-12-10T09:26:12;69.43;;;24.70;;
17424;SDS011;8830;50.978;5.058;2022-12-10T09:28:41;68.30;;;25.73;;
17424;SDS011;8830;50.978;5.058;2022-12-10T09:31:09;65.40;;;24.43;;
17424;SDS011;8830;50.978;5.058;2022-12-10T09:33:37;66.33;;;26.87;;
17424;SDS011;8830;50.978;5.058;2022-12-10T09:36:05;72.17;;;27.13;;
17424;SDS011;8830;50.978;5.058;2022-12-10T09:38:34;79.23;;;27.63;;
17424;SDS011;8830;50.978;5.058;2022-12-10T09:41:03;70.03;;;27.07;;
17424;SDS011;8830;50.978;5.058;2022-12-10T09:43:47;67.00;;;25.53;;
17424;SDS011;8830;50.978;5.058;2022-12-10T09:46:21;66.97;;;26.90;;
17424;SDS011;8830;50.978;5.058;2022-12-10T09:48:56;64.70;;;26.40;;
17424;SDS011;8830;50.978;5.058;2022-12-10T09:51:36;69.73;;;27.37;;
17424;SDS011;8830;50.978;5.058;2022-12-10T09:54:04;71.70;;;29.10;;
17424;SDS011;8830;50.978;5.058;2022-12-10T09:56:50;71.90;;;27.57;;
17424;SDS011;8830;50.978;5.058;2022-12-10T09:59:23;67.53;;;25.77;;
17424;SDS011;8830;50.978;5.058;2022-12-10T10:02:00;61.03;;;26.53;;
17424;SDS011;8830;50.978;5.058;2022-12-10T10:04:32;61.17;;;26.43;;
17424;SDS011;8830;50.978;5.058;2022-12-10T10:07:00;65.03;;;27.47;;
17424;SDS011;8830;50.978;5.058;2022-12-10T10:09:33;61.20;;;26.07;;
17424;SDS011;8830;50.978;5.058;2022-12-10T10:12:09;59.10;;;26.80;;
17424;SDS011;8830;50.978;5.058;2022-12-10T10:14:41;59.63;;;24.33;;
17424;SDS011;8830;50.978;5.058;2022-12-10T10:17:16;68.90;;;25.10;;
17424;SDS011;8830;50.978;5.058;2022-12-10T10:19:47;55.93;;;24.13;;
17424;SDS011;8830;50.978;5.058;2022-12-10T10:22:16;54.33;;;22.87;;
17424;SDS011;8830;50.978;5.058;2022-12-10T10:24:45;43.70;;;19.57;;
17424;SDS011;8830;50.978;5.058;2022-12-10T10:27:15;44.27;;;20.83;;
17424;SDS011;8830;50.978;5.058;2022-12-10T10:29:49;47.57;;;20.40;;
17424;SDS011;8830;50.978;5.058;2022-12-10T10:32:22;45.33;;;20.47;;
17424;SDS011;8830;50.978;5.058;2022-12-10T10:34:54;43.50;;;19.10;;
17424;SDS011;8830;50.978;5.058;2022-12-10T10:37:25;45.87;;;20.97;;
17424;SDS011;8830;50.978;5.058;2022-12-10T10:40:05;38.03;;;18.07;;
17424;SDS011;8830;50.978;5.058;2022-12-10T10:42:47;56.77;;;22.13;;
17424;SDS011;8830;50.978;5.058;2022-12-10T10:48:03;51.27;;;20.47;;
17424;SDS011;8830;50.978;5.058;2022-12-10T10:50:36;43.53;;;20.47;;
17424;SDS011;8830;50.978;5.058;2022-12-10T10:55:55;41.80;;;19.50;;
17424;SDS011;8830;50.978;5.058;2022-12-10T10:58:25;36.63;;;17.07;;
17424;SDS011;8830;50.978;5.058;2022-12-10T11:00:58;38.27;;;18.43;;
17424;SDS011;8830;50.978;5.058;2022-12-10T11:03:30;47.33;;;19.33;;
17424;SDS011;8830;50.978;5.058;2022-12-10T11:06:00;37.73;;;17.47;;
17424;SDS011;8830;50.978;5.058;2022-12-10T11:08:31;38.03;;;17.17;;
17424;SDS011;8830;50.978;5.058;2022-12-10T11:11:02;37.83;;;17.37;;
17424;SDS011;8830;50.978;5.058;2022-12-10T11:13:31;42.83;;;18.33;;
17424;SDS011;8830;50.978;5.058;2022-12-10T11:16:09;38.03;;;17.83;;
17424;SDS011;8830;50.978;5.058;2022-12-10T11:18:51;41.67;;;18.33;;
17424;SDS011;8830;50.978;5.058;2022-12-10T11:21:20;41.90;;;18.37;;
17424;SDS011;8830;50.978;5.058;2022-12-10T11:23:48;44.17;;;17.50;;
17424;SDS011;8830;50.978;5.058;2022-12-10T11:26:24;42.40;;;18.60;;
17424;SDS011;8830;50.978;5.058;2022-12-10T11:29:06;49.20;;;19.10;;
17424;SDS011;8830;50.978;5.058;2022-12-10T11:31:46;51.67;;;20.83;;
17424;SDS011;8830;50.978;5.058;2022-12-10T11:34:28;47.50;;;18.50;;
17424;SDS011;8830;50.978;5.058;2022-12-10T11:37:09;41.50;;;18.20;;
17424;SDS011;8830;50.978;5.058;2022-12-10T11:39:50;39.23;;;18.07;;
17424;SDS011;8830;50.978;5.058;2022-12-10T11:42:30;42.80;;;17.17;;
17424;SDS011;8830;50.978;5.058;2022-12-10T11:45:07;40.07;;;17.17;;
17424;SDS011;8830;50.978;5.058;2022-12-10T11:47:47;43.93;;;17.40;;
17424;SDS011;8830;50.978;5.058;2022-12-10T11:50:32;38.73;;;16.87;;
17424;SDS011;8830;50.978;5.058;2022-12-10T11:53:13;43.90;;;17.93;;
17424;SDS011;8830;50.978;5.058;2022-12-10T11:55:52;44.23;;;18.87;;
17424;SDS011;8830;50.978;5.058;2022-12-10T11:58:32;43.27;;;17.60;;
17424;SDS011;8830;50.978;5.058;2022-12-10T12:01:11;43.33;;;17.27;;
17424;SDS011;8830;50.978;5.058;2022-12-10T12:03:58;41.43;;;17.67;;
17424;SDS011;8830;50.978;5.058;2022-12-10T12:06:40;47.53;;;18.37;;
17424;SDS011;8830;50.978;5.058;2022-12-10T12:09:21;45.27;;;18.50;;
17424;SDS011;8830;50.978;5.058;2022-12-10T12:12:00;40.70;;;17.87;;
17424;SDS011;8830;50.978;5.058;2022-12-10T12:14:39;42.33;;;18.00;;
17424;SDS011;8830;50.978;5.058;2022-12-10T12:17:11;50.47;;;19.57;;
17424;SDS011;8830;50.978;5.058;2022-12-10T12:19:50;46.03;;;19.53;;
17424;SDS011;8830;50.978;5.058;2022-12-10T12:22:22;46.13;;;19.43;;
17424;SDS011;8830;50.978;5.058;2022-12-10T12:24:54;45.40;;;19.27;;
17424;SDS011;8830;50.978;5.058;2022-12-10T12:27:28;46.93;;;19.00;;
17424;SDS011;8830;50.978;5.058;2022-12-10T12:30:04;46.83;;;19.07;;
17424;SDS011;8830;50.978;5.058;2022-12-10T12:32:45;42.90;;;17.90;;
17424;SDS011;8830;50.978;5.058;2022-12-10T12:35:27;44.70;;;17.40;;
17424;SDS011;8830;50.978;5.058;2022-12-10T12:38:03;44.07;;;19.67;;
17424;SDS011;8830;50.978;5.058;2022-12-10T12:40:44;44.97;;;19.07;;
17424;SDS011;8830;50.978;5.058;2022-12-10T12:43:17;46.93;;;19.87;;
17424;SDS011;8830;50.978;5.058;2022-12-10T12:45:52;43.30;;;18.80;;
17424;SDS011;8830;50.978;5.058;2022-12-10T12:48:22;39.00;;;19.07;;
17424;SDS011;8830;50.978;5.058;2022-12-10T12:50:57;43.17;;;18.23;;
17424;SDS011;8830;50.978;5.058;2022-12-10T12:53:26;43.80;;;18.90;;
17424;SDS011;8830;50.978;5.058;2022-12-10T12:55:56;40.63;;;18.30;;
17424;SDS011;8830;50.978;5.058;2022-12-10T12:58:34;36.87;;;18.63;;
17424;SDS011;8830;50.978;5.058;2022-12-10T13:01:19;43.10;;;19.00;;
17424;SDS011;8830;50.978;5.058;2022-12-10T13:03:54;42.27;;;19.27;;
17424;SDS011;8830;50.978;5.058;2022-12-10T13:06:25;40.97;;;19.47;;
17424;SDS011;8830;50.978;5.058;2022-12-10T13:08:57;44.73;;;19.93;;
17424;SDS011;8830;50.978;5.058;2022-12-10T13:11:46;36.47;;;18.90;;
17424;SDS011;8830;50.978;5.058;2022-12-10T13:14:34;43.50;;;19.60;;
17424;SDS011;8830;50.978;5.058;2022-12-10T13:17:25;42.97;;;19.33;;
17424;SDS011;8830;50.978;5.058;2022-12-10T13:23:01;40.83;;;18.83;;
17424;SDS011;8830;50.978;5.058;2022-12-10T13:25:54;41.03;;;18.63;;
17424;SDS011;8830;50.978;5.058;2022-12-10T13:28:28;45.77;;;19.13;;
17424;SDS011;8830;50.978;5.058;2022-12-10T13:31:08;36.93;;;16.37;;
17424;SDS011;8830;50.978;5.058;2022-12-10T13:33:50;38.33;;;17.77;;
17424;SDS011;8830;50.978;5.058;2022-12-10T13:36:24;37.63;;;16.43;;
17424;SDS011;8830;50.978;5.058;2022-12-10T13:39:10;34.93;;;17.00;;
17424;SDS011;8830;50.978;5.058;2022-12-10T13:45:29;42.63;;;19.40;;
17424;SDS011;8830;50.978;5.058;2022-12-10T13:50:55;42.80;;;18.37;;
17424;SDS011;8830;50.978;5.058;2022-12-10T13:53:39;45.47;;;19.23;;
17424;SDS011;8830;50.978;5.058;2022-12-10T13:56:16;42.47;;;18.20;;
17424;SDS011;8830;50.978;5.058;2022-12-10T13:58:55;41.47;;;18.03;;
17424;SDS011;8830;50.978;5.058;2022-12-10T14:01:37;37.57;;;17.73;;
17424;SDS011;8830;50.978;5.058;2022-12-10T14:04:18;43.03;;;17.63;;
17424;SDS011;8830;50.978;5.058;2022-12-10T14:07:01;57.17;;;27.03;;
17424;SDS011;8830;50.978;5.058;2022-12-10T14:09:29;40.07;;;18.57;;
17424;SDS011;8830;50.978;5.058;2022-12-10T14:12:03;39.23;;;18.93;;
17424;SDS011;8830;50.978;5.058;2022-12-10T14:14:37;45.50;;;20.17;;
17424;SDS011;8830;50.978;5.058;2022-12-10T14:17:12;41.00;;;19.87;;
17424;SDS011;8830;50.978;5.058;2022-12-10T14:19:42;42.93;;;19.63;;
17424;SDS011;8830;50.978;5.058;2022-12-10T14:22:12;44.37;;;20.97;;
17424;SDS011;8830;50.978;5.058;2022-12-10T14:24:44;43.67;;;20.83;;
17424;SDS011;8830;50.978;5.058;2022-12-10T14:27:18;46.37;;;19.53;;
17424;SDS011;8830;50.978;5.058;2022-12-10T14:29:51;44.70;;;18.67;;
17424;SDS011;8830;50.978;5.058;2022-12-10T14:32:25;46.03;;;20.07;;
17424;SDS011;8830;50.978;5.058;2022-12-10T14:35:06;45.23;;;19.90;;
17424;SDS011;8830;50.978;5.058;2022-12-10T14:37:39;42.77;;;19.00;;
17424;SDS011;8830;50.978;5.058;2022-12-10T14:40:17;45.33;;;18.90;;
17424;SDS011;8830;50.978;5.058;2022-12-10T14:42:52;42.83;;;19.30;;
17424;SDS011;8830;50.978;5.058;2022-12-10T14:45:34;42.87;;;19.93;;
17424;SDS011;8830;50.978;5.058;2022-12-10T14:48:15;45.37;;;20.57;;
17424;SDS011;8830;50.978;5.058;2022-12-10T14:50:46;44.53;;;19.17;;
17424;SDS011;8830;50.978;5.058;2022-12-10T14:53:17;41.87;;;18.13;;
17424;SDS011;8830;50.978;5.058;2022-12-10T14:55:48;44.10;;;18.67;;
17424;SDS011;8830;50.978;5.058;2022-12-10T14:58:29;42.87;;;18.90;;
17424;SDS011;8830;50.978;5.058;2022-12-10T15:01:03;48.57;;;19.43;;
17424;SDS011;8830;50.978;5.058;2022-12-10T15:03:32;44.93;;;19.63;;
17424;SDS011;8830;50.978;5.058;2022-12-10T15:06:06;40.57;;;19.03;;
17424;SDS011;8830;50.978;5.058;2022-12-10T15:08:35;45.93;;;19.77;;
17424;SDS011;8830;50.978;5.058;2022-12-10T15:11:04;57.83;;;21.73;;
17424;SDS011;8830;50.978;5.058;2022-12-10T15:13:34;42.77;;;20.47;;
17424;SDS011;8830;50.978;5.058;2022-12-10T15:16:13;46.77;;;19.87;;